createdAt,value
2022-10-23T00:01:40.088Z,8.16
2022-10-23T00:04:11.646Z,7.81
2022-10-23T00:06:40.184Z,7.96
2022-10-23T00:09:10.083Z,8.22
2022-10-23T00:11:38.687Z,8.40
2022-10-23T00:14:10.276Z,8.18
2022-10-23T00:16:39.075Z,8.14
2022-10-23T00:19:08.433Z,7.90
2022-10-23T00:21:37.078Z,8.27
2022-10-23T00:24:06.012Z,8.31
2022-10-23T00:26:34.462Z,8.42
2022-10-23T00:29:02.799Z,8.32
2022-10-23T00:31:33.349Z,8.26
2022-10-23T00:34:02.002Z,8.24
2022-10-23T00:36:30.413Z,8.09
2022-10-23T00:38:58.754Z,7.88
2022-10-23T00:41:29.356Z,8.04
2022-10-23T00:44:09.880Z,7.97
2022-10-23T00:46:40.833Z,7.78
2022-10-23T00:51:48.051Z,7.92
2022-10-23T00:54:26.594Z,7.64
2022-10-23T00:56:58.089Z,7.60
2022-10-23T00:59:27.339Z,7.76
2022-10-23T01:01:57.480Z,7.74
2022-10-23T01:04:29.542Z,7.75
2022-10-23T01:07:04.747Z,7.73
2022-10-23T01:09:38.448Z,7.64
2022-10-23T01:12:16.595Z,7.68
2022-10-23T01:14:55.063Z,7.66
2022-10-23T01:17:31.572Z,7.69
2022-10-23T01:20:12.566Z,7.78
2022-10-23T01:23:01.870Z,7.84
2022-10-23T01:25:47.631Z,7.99
2022-10-23T01:28:26.112Z,7.87
2022-10-23T01:30:58.411Z,7.89
2022-10-23T01:33:36.280Z,7.83
2022-10-23T01:36:08.661Z,7.50
2022-10-23T01:38:42.559Z,7.64
2022-10-23T01:41:29.789Z,7.80
2022-10-23T01:44:05.498Z,7.76
2022-10-23T01:46:37.659Z,7.66
2022-10-23T01:49:12.929Z,7.52
2022-10-23T01:51:46.379Z,7.62
2022-10-23T01:54:16.832Z,7.67
2022-10-23T01:56:48.568Z,7.67
2022-10-23T01:59:24.209Z,7.54
2022-10-23T02:01:55.626Z,7.36
2022-10-23T02:04:29.321Z,7.35
2022-10-23T02:06:58.158Z,7.03
2022-10-23T02:09:26.650Z,7.65
2022-10-23T02:12:04.264Z,7.26
2022-10-23T02:14:45.423Z,7.08
2022-10-23T02:17:21.432Z,7.13
2022-10-23T02:19:56.561Z,7.06
2022-10-23T02:22:30.746Z,6.83
2022-10-23T02:25:06.097Z,6.79
2022-10-23T02:27:40.460Z,6.84
2022-10-23T02:30:15.112Z,6.77
2022-10-23T02:32:49.668Z,6.99
2022-10-23T02:35:21.505Z,6.64
2022-10-23T02:37:56.113Z,6.53
2022-10-23T02:40:33.555Z,6.44
2022-10-23T02:43:05.149Z,6.37
2022-10-23T02:48:20.338Z,6.31
2022-10-23T02:50:56.837Z,6.03
2022-10-23T02:53:35.367Z,5.99
2022-10-23T02:56:10.698Z,6.13
2022-10-23T02:58:44.677Z,6.05
2022-10-23T03:01:18.642Z,6.14
2022-10-23T03:03:52.881Z,6.01
2022-10-23T03:06:21.747Z,5.80
2022-10-23T03:08:55.519Z,5.87
2022-10-23T03:11:27.173Z,5.92
2022-10-23T03:13:57.232Z,6.19
2022-10-23T03:16:27.559Z,6.18
2022-10-23T03:18:56.948Z,6.34
2022-10-23T03:21:25.923Z,6.44
2022-10-23T03:23:55.151Z,6.42
2022-10-23T03:26:31.767Z,6.27
2022-10-23T03:29:00.156Z,6.44
2022-10-23T03:31:30.012Z,6.01
2022-10-23T03:34:04.028Z,5.89
2022-10-23T03:36:34.749Z,5.81
2022-10-23T03:39:05.628Z,5.77
2022-10-23T03:41:34.156Z,5.64
2022-10-23T03:44:02.712Z,5.51
2022-10-23T03:46:32.639Z,5.37
2022-10-23T03:49:01.166Z,5.47
2022-10-23T03:51:29.665Z,5.43
2022-10-23T03:53:59.318Z,5.34
2022-10-23T03:56:28.217Z,5.39
2022-10-23T03:58:56.609Z,5.39
2022-10-23T04:01:27.916Z,5.37
2022-10-23T04:03:58.059Z,5.14
2022-10-23T04:06:27.757Z,5.09
2022-10-23T04:08:58.580Z,5.26
2022-10-23T04:11:27.203Z,5.05
2022-10-23T04:13:55.581Z,5.15
2022-10-23T04:16:25.320Z,5.02
2022-10-23T04:18:56.185Z,5.28
2022-10-23T04:21:26.401Z,5.39
2022-10-23T04:23:56.871Z,5.43
2022-10-23T04:26:25.432Z,5.52
2022-10-23T04:28:53.772Z,5.39
2022-10-23T04:31:22.259Z,5.40
2022-10-23T04:33:51.097Z,5.36
2022-10-23T04:36:34.365Z,5.42
2022-10-23T04:39:13.039Z,5.38
2022-10-23T04:41:41.651Z,5.51
2022-10-23T04:44:10.106Z,5.29
2022-10-23T04:46:40.297Z,5.26
2022-10-23T04:49:08.557Z,5.60
2022-10-23T04:51:53.054Z,5.48
2022-10-23T04:54:41.001Z,5.61
2022-10-23T04:57:32.837Z,5.72
2022-10-23T05:00:04.006Z,5.91
2022-10-23T05:02:40.452Z,5.97
2022-10-23T05:05:09.401Z,6.03
2022-10-23T05:07:55.857Z,5.87
2022-10-23T05:10:42.823Z,6.11
2022-10-23T05:13:18.088Z,6.31
2022-10-23T05:15:46.851Z,6.29
2022-10-23T05:18:21.870Z,6.20
2022-10-23T05:20:53.662Z,6.21
2022-10-23T05:23:27.375Z,6.30
2022-10-23T05:26:03.308Z,5.94
2022-10-23T05:28:58.954Z,5.96
2022-10-23T05:31:27.654Z,5.83
2022-10-23T05:34:03.641Z,6.27
2022-10-23T05:36:33.029Z,6.06
2022-10-23T05:39:03.881Z,6.10
2022-10-23T05:41:33.555Z,6.33
2022-10-23T05:44:03.070Z,6.73
2022-10-23T05:46:57.751Z,7.02
2022-10-23T05:49:44.869Z,7.00
2022-10-23T05:52:22.805Z,7.36
2022-10-23T05:55:19.008Z,6.78
2022-10-23T05:57:50.396Z,6.55
2022-10-23T06:00:25.501Z,6.76
2022-10-23T06:03:11.646Z,6.84
2022-10-23T06:05:50.850Z,7.28
2022-10-23T06:08:24.656Z,7.68
2022-10-23T06:10:56.365Z,7.27
2022-10-23T06:13:24.991Z,7.25
2022-10-23T06:15:53.482Z,7.15
2022-10-23T06:18:27.176Z,7.57
2022-10-23T06:21:02.451Z,7.52
2022-10-23T06:23:32.278Z,7.14
2022-10-23T06:26:40.635Z,6.88
2022-10-23T06:29:12.444Z,7.39
2022-10-23T06:31:45.714Z,7.55
2022-10-23T06:34:14.983Z,8.13
2022-10-23T06:36:43.823Z,8.17
2022-10-23T06:39:40.533Z,7.50
2022-10-23T06:42:19.790Z,7.58
2022-10-23T06:44:57.999Z,7.86
2022-10-23T06:47:56.085Z,8.78
2022-10-23T06:50:43.184Z,8.49
2022-10-23T06:53:19.224Z,7.95
2022-10-23T06:55:55.502Z,8.20
2022-10-23T06:58:26.358Z,8.72
2022-10-23T07:01:03.096Z,8.83
2022-10-23T07:03:32.117Z,8.22
2022-10-23T07:06:02.196Z,8.52
2022-10-23T07:08:30.928Z,8.04
2022-10-23T07:11:04.144Z,8.53
2022-10-23T07:13:35.273Z,8.89
2022-10-23T07:16:25.194Z,9.50
2022-10-23T07:18:59.540Z,9.00
2022-10-23T07:21:29.774Z,8.60
2022-10-23T07:24:09.202Z,8.46
2022-10-23T07:26:41.589Z,7.93
2022-10-23T07:29:11.851Z,8.28
2022-10-23T07:31:40.569Z,8.66
2022-10-23T07:34:29.076Z,8.44
2022-10-23T07:37:33.005Z,8.08
2022-10-23T07:40:04.103Z,8.72
2022-10-23T07:42:37.147Z,8.90
2022-10-23T07:45:08.849Z,8.54
2022-10-23T07:47:41.349Z,8.76
2022-10-23T07:50:11.193Z,7.83
2022-10-23T07:52:39.950Z,8.20
2022-10-23T07:55:13.424Z,9.23
2022-10-23T07:58:08.373Z,8.62
2022-10-23T08:00:43.569Z,8.79
2022-10-23T08:03:20.422Z,9.41
2022-10-23T08:05:49.576Z,9.40
2022-10-23T08:08:18.014Z,9.42
2022-10-23T08:10:50.335Z,9.73
2022-10-23T08:13:25.121Z,9.68
2022-10-23T08:16:02.469Z,10.28
2022-10-23T08:18:51.474Z,9.36
2022-10-23T08:21:21.335Z,10.00
2022-10-23T08:23:54.337Z,10.36
2022-10-23T08:26:23.264Z,10.17
2022-10-23T08:28:51.699Z,10.55
2022-10-23T08:31:23.501Z,9.90
2022-10-23T08:34:09.393Z,10.59
2022-10-23T08:36:39.485Z,10.40
2022-10-23T08:39:08.736Z,9.68
2022-10-23T08:41:43.107Z,9.18
2022-10-23T08:44:24.807Z,9.41
2022-10-23T08:47:04.445Z,9.06
2022-10-23T08:49:55.444Z,9.12
2022-10-23T08:52:31.120Z,9.33
2022-10-23T08:55:06.764Z,9.52
2022-10-23T08:57:43.910Z,9.20
2022-10-23T09:00:16.210Z,10.10
2022-10-23T09:02:49.921Z,10.63
2022-10-23T09:05:20.761Z,9.99
2022-10-23T09:08:10.149Z,9.27
2022-10-23T09:10:59.154Z,9.98
2022-10-23T09:13:50.070Z,10.19
2022-10-23T09:16:30.322Z,8.77
2022-10-23T09:19:00.747Z,10.03
2022-10-23T09:21:30.566Z,9.87
2022-10-23T09:23:58.973Z,9.61
2022-10-23T09:26:27.625Z,10.04
2022-10-23T09:29:10.395Z,10.28
2022-10-23T09:31:59.286Z,9.70
2022-10-23T09:34:33.091Z,9.75
2022-10-23T09:37:04.071Z,9.44
2022-10-23T09:39:35.089Z,9.44
2022-10-23T09:42:22.696Z,10.16
2022-10-23T09:44:54.031Z,9.20
2022-10-23T09:47:45.745Z,9.72
2022-10-23T09:50:23.496Z,9.61
2022-10-23T09:52:56.023Z,9.37
2022-10-23T09:55:26.658Z,9.99
2022-10-23T09:58:01.707Z,9.91
2022-10-23T10:00:34.245Z,10.00
2022-10-23T10:03:05.001Z,9.94
2022-10-23T10:05:39.937Z,9.38
2022-10-23T10:08:22.708Z,9.75
2022-10-23T10:10:54.005Z,9.98
2022-10-23T10:13:37.779Z,10.03
2022-10-23T10:16:12.874Z,9.80
2022-10-23T10:18:44.721Z,9.92
2022-10-23T10:21:22.509Z,9.63
2022-10-23T10:24:05.655Z,9.59
2022-10-23T10:26:43.664Z,10.08
2022-10-23T10:29:30.530Z,9.02
2022-10-23T10:32:13.450Z,8.85
2022-10-23T10:34:53.721Z,9.25
2022-10-23T10:37:45.961Z,9.53
2022-10-23T10:40:25.943Z,9.24
2022-10-23T10:43:25.145Z,9.44
2022-10-23T10:46:33.377Z,9.70
2022-10-23T10:49:10.921Z,9.26
2022-10-23T10:51:49.183Z,9.56
2022-10-23T10:54:39.391Z,8.67
2022-10-23T11:00:38.584Z,8.82
2022-10-23T11:03:25.715Z,9.63
2022-10-23T11:05:57.507Z,9.68
2022-10-23T11:08:56.318Z,9.53
2022-10-23T11:11:40.867Z,9.64
2022-10-23T11:14:17.079Z,9.33
2022-10-23T11:16:49.848Z,9.55
2022-10-23T11:19:27.242Z,9.04
2022-10-23T11:22:01.037Z,9.23
2022-10-23T11:25:08.738Z,9.44
2022-10-23T11:27:55.470Z,9.45
2022-10-23T11:30:31.432Z,8.89
2022-10-23T11:33:32.587Z,9.42
2022-10-23T11:36:17.450Z,9.13
2022-10-23T11:38:52.733Z,8.95
2022-10-23T11:41:26.677Z,8.79
2022-10-23T11:44:03.698Z,8.75
2022-10-23T11:46:35.676Z,9.76
2022-10-23T11:49:07.259Z,9.90
2022-10-23T11:51:40.740Z,9.58
2022-10-23T11:54:24.934Z,8.95
2022-10-23T11:56:58.031Z,9.24
2022-10-23T11:59:32.014Z,9.45
2022-10-23T12:02:04.397Z,8.92
2022-10-23T12:04:41.249Z,9.26
2022-10-23T12:07:25.528Z,9.19
2022-10-23T12:09:59.143Z,9.77
2022-10-23T12:12:34.236Z,9.31
2022-10-23T12:15:22.891Z,9.28
2022-10-23T12:17:56.717Z,9.80
2022-10-23T12:20:42.180Z,8.98
2022-10-23T12:23:34.134Z,8.48
2022-10-23T12:26:21.029Z,8.77
2022-10-23T12:29:01.043Z,9.30
2022-10-23T12:31:47.971Z,9.41
2022-10-23T12:34:34.085Z,9.56
2022-10-23T12:37:28.457Z,9.50
2022-10-23T12:39:59.119Z,9.15
2022-10-23T12:42:29.745Z,9.10
2022-10-23T12:45:03.137Z,9.33
2022-10-23T12:50:19.340Z,8.98
2022-10-23T12:52:55.547Z,8.96
2022-10-23T12:55:25.943Z,9.18
2022-10-23T12:57:55.206Z,9.50
2022-10-23T13:00:26.331Z,9.46
2022-10-23T13:03:04.330Z,8.76
2022-10-23T13:05:34.035Z,8.74
2022-10-23T13:08:03.907Z,9.08
2022-10-23T13:10:47.342Z,9.29
2022-10-23T13:13:23.833Z,9.21
2022-10-23T13:15:52.334Z,9.49
2022-10-23T13:18:47.266Z,9.12
2022-10-23T13:21:22.021Z,9.30
2022-10-23T13:23:51.423Z,8.92
2022-10-23T13:26:27.321Z,9.14
2022-10-23T13:28:56.268Z,8.76
2022-10-23T13:31:26.609Z,9.51
2022-10-23T13:34:16.562Z,9.21
2022-10-23T13:36:53.894Z,8.90
2022-10-23T13:39:26.141Z,8.96
2022-10-23T13:42:01.410Z,9.04
2022-10-23T13:44:32.822Z,9.03
2022-10-23T13:47:01.380Z,9.37
2022-10-23T13:49:31.404Z,9.07
2022-10-23T13:52:00.170Z,9.42
2022-10-23T13:54:30.589Z,9.29
2022-10-23T13:56:59.716Z,9.12
2022-10-23T13:59:31.017Z,9.83
2022-10-23T14:02:00.911Z,9.52
2022-10-23T14:04:34.260Z,8.83
2022-10-23T14:07:05.911Z,8.72
2022-10-23T14:09:39.480Z,8.95
2022-10-23T14:12:08.709Z,9.04
2022-10-23T14:14:37.614Z,9.00
2022-10-23T14:17:06.344Z,9.19
2022-10-23T14:22:11.595Z,9.20
2022-10-23T14:24:41.964Z,8.78
2022-10-23T14:27:16.495Z,9.58
2022-10-23T14:29:45.291Z,9.61
2022-10-23T14:32:16.508Z,9.55
2022-10-23T14:34:55.680Z,9.86
2022-10-23T14:37:26.483Z,9.66
2022-10-23T14:39:55.337Z,9.41
2022-10-23T14:42:24.132Z,8.89
2022-10-23T14:44:55.773Z,9.09
2022-10-23T14:47:28.145Z,9.56
2022-10-23T14:49:59.103Z,9.99
2022-10-23T14:52:38.564Z,9.88
2022-10-23T14:55:08.332Z,10.09
2022-10-23T14:57:37.898Z,9.80
2022-10-23T15:00:07.566Z,9.25
2022-10-23T15:02:36.251Z,9.26
2022-10-23T15:05:07.328Z,9.12
2022-10-23T15:07:40.671Z,9.01
2022-10-23T15:10:10.785Z,9.14
2022-10-23T15:12:40.855Z,9.22
2022-10-23T15:15:17.223Z,8.83
2022-10-23T15:17:45.702Z,8.79
2022-10-23T15:20:15.758Z,8.58
2022-10-23T15:22:44.489Z,8.93
2022-10-23T15:25:17.015Z,9.00
2022-10-23T15:27:46.676Z,9.26
2022-10-23T15:30:16.063Z,8.95
2022-10-23T15:32:44.656Z,9.59
2022-10-23T15:35:13.257Z,9.21
2022-10-23T15:37:43.400Z,8.69
2022-10-23T15:40:12.911Z,8.98
2022-10-23T15:42:41.693Z,9.55
2022-10-23T15:45:14.091Z,9.70
2022-10-23T15:47:43.010Z,9.50
2022-10-23T15:50:11.692Z,9.38
2022-10-23T15:52:40.115Z,9.21
2022-10-23T15:55:11.891Z,9.47
2022-10-23T15:57:42.814Z,9.19
2022-10-23T16:00:13.982Z,9.78
2022-10-23T16:02:44.702Z,9.43
2022-10-23T16:05:14.754Z,9.39
2022-10-23T16:07:45.609Z,8.85
2022-10-23T16:10:15.789Z,8.94
2022-10-23T16:12:47.876Z,9.36
2022-10-23T16:15:16.865Z,9.49
2022-10-23T16:17:45.325Z,9.12
2022-10-23T16:20:13.836Z,8.90
2022-10-23T16:22:44.903Z,8.72
2022-10-23T16:25:17.668Z,9.37
2022-10-23T16:27:47.363Z,8.78
2022-10-23T16:30:16.746Z,8.71
2022-10-23T16:32:45.373Z,8.56
2022-10-23T16:35:14.082Z,8.82
2022-10-23T16:37:59.502Z,8.68
2022-10-23T16:40:29.746Z,8.75
2022-10-23T16:43:17.277Z,8.88
2022-10-23T16:46:03.538Z,8.66
2022-10-23T16:48:32.803Z,8.79
2022-10-23T16:51:01.663Z,9.08
2022-10-23T16:53:31.042Z,8.99
2022-10-23T16:56:01.486Z,9.13
2022-10-23T16:58:30.697Z,8.87
2022-10-23T17:01:01.956Z,8.82
2022-10-23T17:03:31.635Z,8.71
2022-10-23T17:06:06.071Z,8.64
2022-10-23T17:08:38.157Z,8.42
2022-10-23T17:11:10.630Z,9.26
2022-10-23T17:13:42.609Z,9.06
2022-10-23T17:16:14.807Z,9.04
2022-10-23T17:18:45.409Z,8.87
2022-10-23T17:21:15.544Z,9.16
2022-10-23T17:23:45.333Z,9.10
2022-10-23T17:26:18.834Z,8.76
2022-10-23T17:28:48.680Z,9.05
2022-10-23T17:31:22.794Z,8.99
2022-10-23T17:33:55.115Z,8.88
2022-10-23T17:36:24.773Z,8.99
2022-10-23T17:38:54.510Z,9.02
2022-10-23T17:41:28.195Z,9.34
2022-10-23T17:43:58.703Z,8.79
2022-10-23T17:46:30.926Z,8.72
2022-10-23T17:51:34.517Z,8.94
2022-10-23T17:54:05.928Z,8.87
2022-10-23T17:56:40.402Z,8.98
2022-10-23T17:59:11.800Z,9.10
2022-10-23T18:01:43.886Z,9.03
2022-10-23T18:04:15.068Z,9.09
2022-10-23T18:06:46.946Z,8.63
2022-10-23T18:09:17.028Z,8.82
2022-10-23T18:11:48.797Z,8.90
2022-10-23T18:14:19.295Z,8.91
2022-10-23T18:16:49.026Z,8.90
2022-10-23T18:19:19.586Z,8.74
2022-10-23T18:22:09.344Z,8.88
2022-10-23T18:24:38.714Z,8.99
2022-10-23T18:27:09.145Z,9.12
2022-10-23T18:29:38.316Z,9.05
2022-10-23T18:32:07.663Z,9.02
2022-10-23T18:34:36.467Z,9.08
2022-10-23T18:37:05.374Z,8.76
2022-10-23T18:39:33.942Z,9.08
2022-10-23T18:42:02.756Z,8.98
2022-10-23T18:44:32.924Z,9.02
2022-10-23T18:47:02.174Z,8.79
2022-10-23T18:49:31.055Z,8.97
2022-10-23T18:51:59.642Z,9.80
2022-10-23T18:54:28.591Z,9.60
2022-10-23T18:56:57.035Z,9.72
2022-10-23T18:59:25.786Z,9.43
2022-10-23T19:01:55.994Z,9.46
2022-10-23T19:04:25.863Z,9.30
2022-10-23T19:06:54.361Z,9.44
2022-10-23T19:09:23.175Z,9.25
2022-10-23T19:11:51.740Z,9.43
2022-10-23T19:14:20.365Z,9.33
2022-10-23T19:17:00.619Z,9.26
2022-10-23T19:19:33.103Z,9.04
2022-10-23T19:22:03.844Z,9.22
2022-10-23T19:24:37.983Z,9.19
2022-10-23T19:27:07.860Z,9.20
2022-10-23T19:29:41.248Z,9.24
2022-10-23T19:32:11.296Z,9.39
2022-10-23T19:34:40.167Z,9.41
2022-10-23T19:37:09.029Z,9.36
2022-10-23T19:39:37.641Z,9.57
2022-10-23T19:42:06.088Z,9.55
2022-10-23T19:44:34.436Z,9.64
2022-10-23T19:47:03.535Z,9.52
2022-10-23T19:49:33.274Z,9.31
2022-10-23T19:52:01.791Z,9.40
2022-10-23T19:54:30.207Z,9.40
2022-10-23T19:56:58.662Z,9.54
2022-10-23T19:59:27.087Z,9.44
2022-10-23T20:01:55.779Z,9.45
2022-10-23T20:04:24.288Z,9.41
2022-10-23T20:06:54.046Z,9.49
2022-10-23T20:09:22.725Z,9.59
2022-10-23T20:11:51.193Z,9.67
2022-10-23T20:14:20.328Z,9.90
2022-10-23T20:16:52.214Z,9.52
2022-10-23T20:19:24.065Z,9.54
2022-10-23T20:21:53.865Z,9.56
2022-10-23T20:24:22.960Z,9.40
2022-10-23T20:26:53.919Z,9.68
2022-10-23T20:29:23.236Z,9.78
2022-10-23T20:31:51.800Z,9.58
2022-10-23T20:34:20.448Z,9.54
2022-10-23T20:36:50.563Z,9.45
2022-10-23T20:39:25.574Z,9.42
2022-10-23T20:41:55.796Z,9.50
2022-10-23T20:44:24.908Z,9.53
2022-10-23T20:46:53.728Z,9.67
2022-10-23T20:49:22.318Z,9.66
2022-10-23T20:51:55.094Z,9.63
2022-10-23T20:54:27.650Z,9.60
2022-10-23T20:56:57.130Z,9.63
2022-10-23T20:59:25.737Z,9.66
2022-10-23T21:01:56.541Z,9.71
2022-10-23T21:04:27.677Z,9.98
2022-10-23T21:07:09.459Z,10.07
2022-10-23T21:09:40.620Z,9.89
2022-10-23T21:12:09.393Z,9.61
2022-10-23T21:14:38.014Z,9.99
2022-10-23T21:17:08.581Z,10.31
2022-10-23T21:19:37.180Z,10.48
2022-10-23T21:22:05.590Z,10.18
2022-10-23T21:24:33.993Z,9.56
2022-10-23T21:27:03.912Z,9.40
2022-10-23T21:29:32.364Z,9.51
2022-10-23T21:32:02.332Z,9.85
2022-10-23T21:34:31.249Z,10.43
2022-10-23T21:37:12.567Z,10.46
2022-10-23T21:39:42.248Z,10.37
2022-10-23T21:42:12.143Z,10.04
2022-10-23T21:44:40.653Z,9.07
2022-10-23T21:47:09.165Z,8.96
2022-10-23T21:49:37.604Z,9.21
2022-10-23T21:52:06.045Z,9.09
2022-10-23T21:54:34.506Z,9.31
2022-10-23T21:57:03.583Z,9.28
2022-10-23T21:59:36.080Z,9.12
2022-10-23T22:02:05.695Z,9.06
2022-10-23T22:04:34.180Z,9.04
2022-10-23T22:07:03.171Z,8.97
2022-10-23T22:09:32.645Z,8.98
2022-10-23T22:12:01.712Z,9.50
2022-10-23T22:14:30.113Z,9.35
2022-10-23T22:16:59.956Z,9.21
2022-10-23T22:19:28.440Z,9.23
2022-10-23T22:21:57.041Z,9.23
2022-10-23T22:24:25.523Z,9.30
2022-10-23T22:26:56.053Z,9.12
2022-10-23T22:29:26.805Z,9.10
2022-10-23T22:31:55.583Z,9.10
2022-10-23T22:34:48.400Z,8.69
2022-10-23T22:37:15.644Z,8.99
2022-10-23T22:39:44.511Z,8.98
2022-10-23T22:42:12.615Z,9.26
2022-10-23T22:44:41.071Z,8.98
2022-10-23T22:47:09.645Z,9.00
2022-10-23T22:49:39.581Z,8.87
2022-10-23T22:52:08.044Z,8.64
2022-10-23T22:54:36.437Z,9.02
2022-10-23T22:57:04.991Z,8.75
2022-10-23T22:59:33.411Z,9.08
2022-10-23T23:02:01.825Z,8.96
2022-10-23T23:04:37.683Z,9.09
2022-10-23T23:07:09.136Z,8.58
2022-10-23T23:09:39.133Z,8.89
2022-10-23T23:12:08.693Z,8.87
2022-10-23T23:14:37.445Z,8.82
2022-10-23T23:17:06.233Z,8.78
2022-10-23T23:19:34.805Z,8.73
2022-10-23T23:22:04.107Z,8.85
2022-10-23T23:24:34.387Z,8.22
2022-10-23T23:27:02.876Z,8.34
2022-10-23T23:29:31.307Z,8.64
2022-10-23T23:31:59.698Z,8.62
2022-10-23T23:34:28.224Z,8.71
2022-10-23T23:36:56.626Z,8.89
2022-10-23T23:39:26.209Z,8.65
2022-10-23T23:41:56.077Z,8.97
2022-10-23T23:44:24.461Z,8.84
2022-10-23T23:46:52.831Z,8.95
2022-10-23T23:49:21.215Z,8.66
2022-10-23T23:51:49.646Z,8.52
2022-10-23T23:54:18.285Z,8.54
2022-10-23T23:56:46.604Z,8.28
2022-10-23T23:59:16.378Z,8.32
